Time;durP1;ratioP1;P1;durP2;ratioP2;P2;SDS_P1;SDS_P2;PMS_P1;PMS_P2;Temp;Humidity;BMP_temperature;BMP_pressure;BME280_temperature;BME280_humidity;BME280_pressure;Samples;Min_cycle;Max_cycle;Signal;HPM_P1;HPM_P2
2021/07/26 00:01:51;;;;;;;5.03;4.05;;;;;;;21.76;72.43;99596.44;10270628;28;20137;-65
2021/07/26 00:06:53;;;;;;;6.55;4.97;;;;;;;21.68;72.67;99611.03;10265917;28;20133;-64
2021/07/26 00:11:54;;;;;;;5.22;4.55;;;;;;;21.59;72.75;99585.22;10269059;28;20474;-65
2021/07/26 00:16:55;;;;;;;5.00;4.60;;;;;;;21.63;72.78;99590.03;10277297;28;20046;-65
2021/07/26 00:21:57;;;;;;;6.10;4.63;;;;;;;21.59;73.14;99585.22;10270777;28;20129;-66
2021/07/26 00:26:58;;;;;;;8.43;5.20;;;;;;;21.53;73.48;99589.63;10269205;28;20141;-66
2021/07/26 00:32:00;;;;;;;5.68;4.85;;;;;;;21.46;73.72;99567.09;10272863;28;20129;-65
2021/07/26 00:37:02;;;;;;;8.63;4.95;;;;;;;21.40;73.63;99549.81;10270817;28;20149;-66
2021/07/26 00:42:04;;;;;;;8.35;4.63;;;;;;;21.42;73.46;99553.13;10283620;28;20428;-65
2021/07/26 00:47:05;;;;;;;7.25;4.97;;;;;;;21.43;74.04;99570.25;10276924;28;20527;-66
2021/07/26 00:52:07;;;;;;;6.40;5.22;;;;;;;21.30;74.62;99542.16;10276748;28;20077;-65
2021/07/26 00:57:09;;;;;;;6.18;4.82;;;;;;;21.28;74.58;99540.69;10268589;28;20170;-65
2021/07/26 01:02:11;;;;;;;7.43;4.93;;;;;;;21.35;74.84;99552.34;10268351;28;20158;-65
2021/07/26 01:07:12;;;;;;;5.38;4.60;;;;;;;21.28;74.38;99541.53;10274586;28;20137;-66
2021/07/26 01:12:14;;;;;;;7.30;4.28;;;;;;;21.14;75.03;99559.66;10268902;28;20066;-65
2021/07/26 01:17:48;;;;;;;6.00;4.53;;;;;;;20.78;76.77;99563.63;10283955;28;20053;-66
2021/07/26 01:22:49;;;;;;;8.65;5.47;;;;;;;20.85;76.24;99560.91;10287502;28;20061;-65
2021/07/26 01:27:51;;;;;;;7.22;5.18;;;;;;;20.99;75.31;99567.16;10274171;28;20558;-65
2021/07/26 01:32:52;;;;;;;7.07;5.22;;;;;;;21.04;75.18;99566.53;10277958;28;20107;-66
2021/07/26 01:37:53;;;;;;;6.15;4.65;;;;;;;21.02;75.23;99574.88;10278076;28;20078;-65
2021/07/26 01:43:02;;;;;;;8.30;4.88;;;;;;;21.01;74.74;99571.31;10294141;28;20058;-66
2021/07/26 01:48:14;;;;;;;5.10;4.60;;;;;;;20.98;74.52;99573.59;10273566;28;20141;-65
2021/07/26 01:53:17;;;;;;;8.40;5.63;;;;;;;20.91;74.68;99575.47;10272973;28;20125;-65
2021/07/26 01:58:18;;;;;;;5.47;4.97;;;;;;;20.81;75.55;99579.44;10269781;28;20570;-67
2021/07/26 02:03:20;;;;;;;6.47;5.45;;;;;;;20.81;76.63;99575.91;10270795;28;20117;-64
2021/07/26 02:08:21;;;;;;;9.57;8.68;;;;;;;20.86;76.80;99581.50;10275008;28;20128;-66
2021/07/26 02:13:22;;;;;;;9.80;8.77;;;;;;;20.79;77.36;99578.81;10275269;28;20046;-65
2021/07/26 02:18:24;;;;;;;10.40;7.75;;;;;;;20.70;77.66;99584.63;10277404;28;20138;-65
2021/07/26 02:23:25;;;;;;;10.20;5.68;;;;;;;20.77;77.21;99588.16;10280130;28;20512;-65
2021/07/26 02:28:26;;;;;;;7.70;5.57;;;;;;;20.76;77.10;99592.75;10274329;28;20119;-66
2021/07/26 02:33:28;;;;;;;7.53;5.88;;;;;;;20.72;77.23;99605.00;10304227;22;20078;-68
2021/07/26 02:38:29;;;;;;;6.18;5.30;;;;;;;20.69;77.03;99600.00;10303928;28;20137;-68
2021/07/26 02:43:31;;;;;;;6.65;5.88;;;;;;;20.65;77.18;99596.88;10307486;28;20126;-68
2021/07/26 02:48:33;;;;;;;8.27;5.80;;;;;;;20.62;76.89;99610.78;10302599;28;20132;-68
2021/07/26 02:53:34;;;;;;;7.30;5.63;;;;;;;20.60;76.97;99603.91;10295034;28;20042;-68
2021/07/26 02:58:36;;;;;;;6.70;5.45;;;;;;;20.57;77.14;99607.03;10295903;28;20046;-68
2021/07/26 03:03:39;;;;;;;8.20;6.85;;;;;;;20.51;77.42;99611.38;10304145;28;20144;-68
2021/07/26 03:08:40;;;;;;;8.38;6.20;;;;;;;20.49;77.39;99619.69;10302291;28;20121;-69
2021/07/26 03:13:42;;;;;;;6.70;6.05;;;;;;;20.47;77.54;99621.75;10295899;28;20129;-68
2021/07/26 03:18:44;;;;;;;7.40;5.95;;;;;;;20.45;77.36;99623.84;10323941;28;20066;-68
2021/07/26 03:23:45;;;;;;;6.47;5.72;;;;;;;20.38;77.28;99622.97;10305423;28;20120;-68
2021/07/26 03:28:47;;;;;;;8.35;6.35;;;;;;;20.32;76.94;99631.91;10297714;28;20050;-68
2021/07/26 03:33:48;;;;;;;6.78;6.07;;;;;;;20.27;76.92;99642.50;10300121;28;20137;-67
2021/07/26 03:38:50;;;;;;;6.38;5.78;;;;;;;20.21;77.05;99638.72;10307577;28;20141;-69
2021/07/26 03:43:51;;;;;;;7.43;6.40;;;;;;;20.19;76.84;99638.09;10295618;28;20125;-68
2021/07/26 03:48:52;;;;;;;6.40;5.50;;;;;;;20.12;76.63;99629.94;10298580;28;20576;-68
2021/07/26 03:53:54;;;;;;;6.68;5.82;;;;;;;20.12;76.53;99651.56;10304843;28;20129;-67
2021/07/26 03:58:55;;;;;;;7.50;5.97;;;;;;;20.13;76.32;99650.53;10296761;28;20142;-67
2021/07/26 04:03:56;;;;;;;7.57;5.47;;;;;;;20.16;75.77;99646.59;10291601;28;20154;-67
2021/07/26 04:08:59;;;;;;;7.32;5.28;;;;;;;20.18;76.02;99639.13;10294744;28;20592;-68
2021/07/26 04:14:02;;;;;;;7.43;5.50;;;;;;;20.18;75.92;99654.50;10296740;28;20093;-68
2021/07/26 04:19:04;;;;;;;8.63;6.20;;;;;;;20.20;75.83;99663.25;10294580;28;20072;-68
2021/07/26 04:24:06;;;;;;;6.68;6.05;;;;;;;20.18;75.78;99671.56;10307336;28;20062;-68
2021/07/26 04:29:07;;;;;;;8.75;5.68;;;;;;;20.14;76.11;99687.31;10290607;28;20070;-68
2021/07/26 04:34:10;;;;;;;8.10;5.90;;;;;;;20.14;75.99;99689.19;10289130;28;20189;-67
2021/07/26 04:39:11;;;;;;;6.63;5.65;;;;;;;20.09;76.28;99692.50;10291573;28;20145;-67
2021/07/26 04:44:12;;;;;;;7.28;6.32;;;;;;;20.09;76.38;99706.00;10294383;28;20059;-68
2021/07/26 04:49:14;;;;;;;9.13;6.28;;;;;;;20.06;76.30;99706.41;10303247;28;20130;-68
2021/07/26 04:54:15;;;;;;;6.95;5.60;;;;;;;20.09;76.20;99699.78;10296656;28;20164;-68
2021/07/26 04:59:20;;;;;;;6.68;5.22;;;;;;;20.12;76.52;99708.31;10285517;28;20751;-68
2021/07/26 05:04:21;;;;;;;8.98;6.53;;;;;;;20.12;76.13;99700.19;10308606;28;20133;-67
2021/07/26 05:09:24;;;;;;;7.93;6.65;;;;;;;20.09;76.26;99705.19;10305367;28;20063;-68
2021/07/26 05:14:26;;;;;;;8.80;6.40;;;;;;;20.12;76.05;99702.91;10305223;28;20848;-69
2021/07/26 05:19:27;;;;;;;6.78;6.07;;;;;;;20.19;76.42;99694.00;10286997;28;20304;-68
2021/07/26 05:24:29;;;;;;;9.40;6.47;;;;;;;20.27;76.45;99691.13;10290889;28;20663;-68
2021/07/26 05:29:31;;;;;;;8.07;6.03;;;;;;;20.42;76.57;99694.53;10292472;28;20042;-68
2021/07/26 05:34:32;;;;;;;6.80;5.38;;;;;;;20.49;76.63;99698.09;10293368;28;20552;-67
2021/07/26 05:39:34;;;;;;;8.30;6.72;;;;;;;20.49;76.66;99706.19;10296101;28;20046;-68
2021/07/26 05:44:41;;;;;;;7.00;4.93;;;;;;;20.44;76.60;99703.25;10315012;28;20047;-68
2021/07/26 05:49:43;;;;;;;7.03;5.82;;;;;;;20.55;76.45;99706.41;10315928;28;20050;-67
2021/07/26 05:54:45;;;;;;;6.22;5.63;;;;;;;20.62;76.56;99705.41;10309469;28;20435;-67
2021/07/26 05:59:46;;;;;;;6.18;5.68;;;;;;;20.70;76.60;99712.53;10294603;28;20071;-67
2021/07/26 06:04:47;;;;;;;6.85;6.07;;;;;;;20.72;76.02;99709.66;10309144;28;20133;-67
2021/07/26 06:09:50;;;;;;;8.25;6.63;;;;;;;20.87;75.87;99706.75;10311391;28;20141;-68
2021/07/26 06:14:51;;;;;;;7.22;6.50;;;;;;;20.94;75.60;99696.78;10302306;28;20088;-68
2021/07/26 06:19:52;;;;;;;6.47;5.88;;;;;;;20.99;75.39;99697.03;10295853;28;20245;-70
2021/07/26 06:24:54;;;;;;;6.25;5.65;;;;;;;21.07;74.45;99696.81;10310043;28;20106;-68
2021/07/26 06:29:55;;;;;;;6.95;5.20;;;;;;;21.24;73.92;99701.81;10312965;28;20069;-69
2021/07/26 06:34:57;;;;;;;5.65;5.00;;;;;;;21.30;73.13;99706.41;10301232;28;20062;-68
2021/07/26 06:39:58;;;;;;;5.30;4.80;;;;;;;21.41;72.46;99707.66;10307564;28;20082;-68
2021/07/26 06:45:00;;;;;;;4.97;4.57;;;;;;;21.63;71.36;99706.47;10314852;28;20158;-67
2021/07/26 06:50:03;;;;;;;6.25;4.40;;;;;;;21.71;70.93;99708.13;10315085;28;20077;-67
2021/07/26 06:55:05;;;;;;;;;;;;;;;21.98;70.39;99708.91;10307050;28;20073;-67
2021/07/26 07:00:07;;;;;;;5.38;4.00;;;;;;;22.27;68.90;99706.75;10294566;28;20021;-68
2021/07/26 07:05:09;;;;;;;6.13;4.28;;;;;;;22.19;68.44;99709.72;10298605;28;20089;-68
2021/07/26 07:10:11;;;;;;;6.38;3.55;;;;;;;22.02;68.36;99709.31;10304786;28;20133;-68
2021/07/26 07:15:18;;;;;;;5.40;4.78;;;;;;;22.34;68.38;99714.88;10300869;28;20125;-68
2021/07/26 07:20:20;;;;;;;5.60;3.45;;;;;;;22.45;67.20;99708.81;10303668;28;20483;-69
2021/07/26 07:25:21;;;;;;;3.85;3.47;;;;;;;22.66;66.35;99706.84;10301330;28;20129;-69
2021/07/26 07:30:23;;;;;;;3.78;3.42;;;;;;;22.67;64.83;99705.78;10298078;28;20145;-69
2021/07/26 07:35:24;;;;;;;5.43;3.75;;;;;;;22.62;65.23;99703.72;10293406;28;20144;-69
2021/07/26 07:40:26;;;;;;;4.72;4.15;;;;;;;22.78;64.98;99718.66;10303375;28;20137;-68
2021/07/26 07:45:27;;;;;;;3.55;3.25;;;;;;;22.94;64.60;99711.91;10305890;28;20550;-68
2021/07/26 07:50:29;;;;;;;3.60;3.10;;;;;;;23.09;64.25;99719.75;10307843;28;20135;-68
2021/07/26 07:55:30;;;;;;;4.20;2.97;;;;;;;23.46;62.11;99709.91;10306695;28;20125;-69
2021/07/26 08:00:32;;;;;;;4.80;3.38;;;;;;;23.55;61.86;99712.31;10300046;28;20227;-69
2021/07/26 08:05:33;;;;;;;3.97;2.88;;;;;;;23.65;61.75;99718.91;10292746;28;20046;-70
2021/07/26 08:10:35;;;;;;;7.43;3.33;;;;;;;23.72;60.58;99715.31;10293760;28;20046;-69
2021/07/26 08:15:36;;;;;;;4.47;3.28;;;;;;;23.73;59.23;99719.69;10299131;28;20159;-67
2021/07/26 08:20:38;;;;;;;4.10;3.35;;;;;;;24.07;58.64;99731.13;10300166;28;20074;-68
2021/07/26 08:25:40;;;;;;;3.47;2.55;;;;;;;24.19;57.15;99729.31;10290293;28;20497;-68
2021/07/26 08:30:41;;;;;;;4.43;2.67;;;;;;;24.48;57.21;99724.16;10289816;28;20482;-68
2021/07/26 08:35:43;;;;;;;4.47;3.10;;;;;;;24.65;55.75;99733.41;10295934;28;20054;-69
2021/07/26 08:40:44;;;;;;;3.75;2.58;;;;;;;25.13;54.31;99739.88;10297548;28;20476;-68
2021/07/26 08:45:46;;;;;;;4.35;2.90;;;;;;;25.19;53.48;99740.81;10292820;28;20686;-71
2021/07/26 08:50:50;;;;;;;4.05;2.63;;;;;;;24.95;54.49;99739.91;10304145;28;20070;-70
2021/07/26 08:55:51;;;;;;;4.90;2.78;;;;;;;25.21;54.79;99741.44;10294836;28;20138;-70
2021/07/26 09:00:55;;;;;;;2.78;2.40;;;;;;;25.74;50.83;99746.03;10293760;28;20059;-70
2021/07/26 09:05:57;;;;;;;4.53;2.33;;;;;;;25.97;50.04;99741.66;10299288;28;20528;-69
2021/07/26 09:11:02;;;;;;;2.92;2.65;;;;;;;25.91;51.44;99734.44;10300482;28;20138;-69
2021/07/26 09:16:16;;;;;;;3.17;2.30;;;;;;;25.97;49.29;99738.94;10292081;28;20112;-70
2021/07/26 09:21:17;;;;;;;2.55;2.10;;;;;;;25.98;49.94;99735.16;10299797;28;20045;-69
2021/07/26 09:26:28;;;;;;;3.95;2.13;;;;;;;25.83;48.79;99741.06;10300593;28;20137;-68
2021/07/26 09:31:29;;;;;;;3.58;2.58;;;;;;;25.92;49.60;99730.66;10312008;28;20046;-69
2021/07/26 09:36:37;;;;;;;7.55;2.83;;;;;;;26.62;49.60;99728.91;10305603;28;20058;-69
2021/07/26 09:41:47;;;;;;;3.22;2.92;;;;;;;26.75;48.33;99733.28;10305316;28;20046;-68
2021/07/26 09:46:50;;;;;;;3.30;2.30;;;;;;;26.81;48.77;99724.97;10308717;28;20116;-70
2021/07/26 09:52:08;;;;;;;2.08;1.52;;;;;;;27.32;44.02;99716.00;10320866;28;20074;-69
2021/07/26 09:57:22;;;;;;;3.47;2.03;;;;;;;27.46;45.46;99719.31;10308175;28;20042;-70
2021/07/26 10:02:24;;;;;;;2.70;1.65;;;;;;;27.93;42.65;99709.91;10312170;28;20135;-70
2021/07/26 10:07:27;;;;;;;;;;;;;;;28.08;43.09;99712.88;10318123;28;20042;-70
2021/07/26 10:12:28;;;;;;;3.33;2.03;;;;;;;28.46;42.41;99711.16;10295244;28;19986;-70
2021/07/26 10:17:32;;;;;;;2.90;1.90;;;;;;;28.44;41.97;99715.25;10296578;28;20469;-70
2021/07/26 10:22:35;;;;;;;2.70;1.88;;;;;;;28.07;41.17;99703.00;10281786;28;20059;-70
2021/07/26 10:27:38;;;;;;;2.92;1.60;;;;;;;28.64;42.00;99698.25;10289108;28;20046;-69
2021/07/26 10:32:40;;;;;;;2.33;1.90;;;;;;;29.81;39.62;99705.94;10306976;28;20050;-70
2021/07/26 10:37:45;;;;;;;2.63;1.93;;;;;;;29.16;39.22;99711.41;10309715;28;20077;-69
2021/07/26 10:42:47;;;;;;;2.85;2.30;;;;;;;28.84;41.67;99705.84;10312022;28;20134;-70
2021/07/26 10:48:27;;;;;;;2.92;1.80;;;;;;;29.14;40.86;99713.59;10312519;28;20081;-69
2021/07/26 10:53:31;;;;;;;2.45;2.00;;;;;;;29.08;39.61;99709.97;10305191;28;20117;-71
2021/07/26 10:58:39;;;;;;;2.92;2.20;;;;;;;29.01;39.60;99709.34;10306670;28;20141;-68
2021/07/26 11:03:41;;;;;;;3.05;1.77;;;;;;;28.85;38.85;99704.78;10299660;28;20132;-69
2021/07/26 11:08:42;;;;;;;2.50;1.63;;;;;;;29.05;40.69;99699.53;10298836;28;20741;-70
2021/07/26 11:13:44;;;;;;;4.07;2.23;;;;;;;28.56;39.28;99703.06;10290117;28;20141;-70
2021/07/26 11:18:46;;;;;;;;;;;;;;;27.85;41.38;99698.31;10307342;28;20103;-69
2021/07/26 11:23:56;;;;;;;2.75;2.00;;;;;;;27.40;42.64;99690.22;10301757;28;20371;-69
2021/07/26 11:28:59;;;;;;;1.73;1.63;;;;;;;27.19;41.89;99689.00;10299229;28;20074;-69
2021/07/26 11:34:13;;;;;;;4.93;2.08;;;;;;;27.48;42.52;99687.06;10301494;28;20141;-70
2021/07/26 11:39:14;;;;;;;2.22;1.90;;;;;;;27.55;40.62;99682.28;10302610;28;20050;-68
2021/07/26 11:44:25;;;;;;;4.70;1.85;;;;;;;28.41;39.20;99683.75;10298885;28;20050;-69
2021/07/26 11:49:27;;;;;;;3.30;2.20;;;;;;;28.99;37.81;99666.84;10303164;28;20121;-69
2021/07/26 11:54:29;;;;;;;1.92;1.73;;;;;;;28.46;39.10;99669.28;10307527;28;20133;-69
2021/07/26 11:59:31;;;;;;;3.13;1.63;;;;;;;27.69;38.12;99672.63;10300482;28;20092;-70
2021/07/26 12:04:34;;;;;;;1.88;1.77;;;;;;;27.06;40.10;99680.06;10294684;28;20461;-70
2021/07/26 12:09:35;;;;;;;2.47;1.92;;;;;;;26.69;42.06;99675.00;10299008;28;20575;-71
2021/07/26 12:14:38;;;;;;;2.83;2.10;;;;;;;26.39;42.82;99688.88;10300645;28;20058;-70
2021/07/26 12:19:41;;;;;;;6.55;2.00;;;;;;;26.08;43.51;99678.16;10307426;28;20054;-70
2021/07/26 12:24:47;;;;;;;3.25;1.70;;;;;;;25.88;43.17;99683.09;10299745;28;20082;-69
2021/07/26 12:30:15;;;;;;;2.70;2.08;;;;;;;25.73;44.97;99706.25;10306722;28;20054;-71
2021/07/26 12:35:19;;;;;;;2.05;1.80;;;;;;;25.59;45.61;99715.72;10293785;28;20066;-70
2021/07/26 12:40:26;;;;;;;2.53;2.10;;;;;;;25.62;46.93;99728.03;10301121;28;20212;-69
2021/07/26 12:45:27;;;;;;;6.15;2.13;;;;;;;25.74;47.90;99724.25;10313923;28;20096;-68
2021/07/26 12:50:31;;;;;;;6.10;2.15;;;;;;;25.99;47.54;99715.03;10312711;28;20054;-69
2021/07/26 12:55:32;;;;;;;2.92;1.80;;;;;;;26.57;46.82;99698.78;10309661;28;20070;-69
2021/07/26 13:00:36;;;;;;;4.80;2.35;;;;;;;26.97;45.93;99706.94;10307615;28;20113;-69
2021/07/26 13:05:41;;;;;;;5.15;2.38;;;;;;;27.04;45.74;99704.06;10309748;28;20069;-69
2021/07/26 13:10:47;;;;;;;3.03;2.10;;;;;;;27.52;45.14;99688.25;10306236;28;20052;-69
2021/07/26 13:15:48;;;;;;;2.45;2.13;;;;;;;28.01;44.06;99687.59;10311608;28;20644;-69
2021/07/26 13:20:50;;;;;;;4.40;2.30;;;;;;;28.09;44.41;99673.50;10307728;28;20532;-70
2021/07/26 13:25:51;;;;;;;2.88;2.17;;;;;;;28.39;44.76;99662.09;10301946;28;20048;-69
2021/07/26 13:30:52;;;;;;;3.53;2.25;;;;;;;28.37;44.18;99660.69;10294970;28;20090;-70
2021/07/26 13:35:54;;;;;;;2.30;1.90;;;;;;;27.95;44.42;99664.78;10300090;28;20078;-69
2021/07/26 13:40:55;;;;;;;3.60;2.00;;;;;;;27.98;44.06;99666.22;10308325;28;20820;-70
2021/07/26 13:45:56;;;;;;;3.20;2.22;;;;;;;27.56;44.45;99655.75;10314123;28;20125;-70
2021/07/26 13:50:58;;;;;;;3.33;2.40;;;;;;;27.86;43.88;99661.69;10311132;28;20149;-69
2021/07/26 13:55:59;;;;;;;2.28;1.90;;;;;;;28.08;42.74;99669.09;10309857;28;20089;-69
2021/07/26 14:01:01;;;;;;;2.45;1.88;;;;;;;28.37;41.69;99663.44;10311403;28;20073;-69
2021/07/26 14:06:02;;;;;;;2.55;2.08;;;;;;;28.08;41.84;99649.13;10312196;28;20598;-69
2021/07/26 14:11:04;;;;;;;3.38;2.10;;;;;;;28.46;40.66;99659.16;10314329;28;20108;-73
2021/07/26 14:16:05;;;;;;;2.57;1.90;;;;;;;28.43;40.71;99659.66;10312157;28;20131;-69
2021/07/26 14:21:07;;;;;;;2.90;1.35;;;;;;;28.21;40.48;99656.97;10310455;28;20057;-69
2021/07/26 14:26:08;;;;;;;3.92;1.95;;;;;;;27.92;40.49;99654.34;10310030;28;20137;-70
2021/07/26 14:31:10;;;;;;;4.40;2.05;;;;;;;27.49;41.14;99642.28;10303660;28;20125;-69
2021/07/26 14:36:11;;;;;;;2.55;1.90;;;;;;;27.20;42.81;99657.91;10306539;28;20134;-69
2021/07/26 14:41:13;;;;;;;2.22;1.88;;;;;;;27.27;43.08;99655.84;10300183;28;20077;-69
2021/07/26 14:46:15;;;;;;;2.63;1.80;;;;;;;27.01;43.72;99655.41;10304582;28;20484;-69
2021/07/26 14:51:16;;;;;;;3.00;2.08;;;;;;;26.99;43.58;99658.38;10308544;28;20069;-69
2021/07/26 14:56:18;;;;;;;3.10;2.10;;;;;;;27.15;44.08;99651.25;10314487;28;20105;-68
2021/07/26 15:01:20;;;;;;;3.05;2.20;;;;;;;27.17;43.99;99660.06;10309040;28;20513;-69
2021/07/26 15:06:22;;;;;;;3.15;1.73;;;;;;;27.25;43.95;99649.78;10309423;28;20053;-69
2021/07/26 15:11:23;;;;;;;3.33;1.88;;;;;;;27.39;43.87;99640.22;10300154;28;20140;-70
2021/07/26 15:16:29;;;;;;;2.40;1.88;;;;;;;27.23;44.55;99630.91;10305890;28;20694;-68
2021/07/26 15:21:33;;;;;;;3.15;2.17;;;;;;;27.22;43.67;99632.00;10294965;28;20065;-68
2021/07/26 15:26:34;;;;;;;2.67;2.08;;;;;;;27.37;43.37;99625.97;10300291;28;20051;-69
2021/07/26 15:31:37;;;;;;;2.33;1.90;;;;;;;27.49;43.30;99626.69;10300242;28;20074;-69
2021/07/26 15:36:39;;;;;;;4.20;2.17;;;;;;;27.47;42.98;99628.03;10305804;28;20054;-70
2021/07/26 15:41:41;;;;;;;3.15;1.73;;;;;;;27.57;42.42;99630.09;10308005;28;20053;-69
2021/07/26 15:46:43;;;;;;;3.70;1.87;;;;;;;27.40;42.47;99633.66;10304021;28;20125;-70
2021/07/26 15:51:44;;;;;;;3.05;2.47;;;;;;;27.36;42.74;99637.97;10302355;28;20117;-69
2021/07/26 15:56:46;;;;;;;2.88;2.00;;;;;;;27.10;43.25;99618.41;10309153;28;20125;-70
2021/07/26 16:01:47;;;;;;;2.22;1.83;;;;;;;27.27;43.47;99621.13;10306630;28;20050;-69
2021/07/26 16:06:49;;;;;;;2.70;2.10;;;;;;;27.46;43.22;99613.53;10304159;28;20167;-69
2021/07/26 16:11:50;;;;;;;3.05;1.80;;;;;;;27.48;42.70;99613.28;10287070;28;20149;-71
2021/07/26 16:16:52;;;;;;;2.72;2.00;;;;;;;27.52;42.44;99631.66;10299250;28;20050;-71
2021/07/26 16:21:53;;;;;;;3.83;2.20;;;;;;;27.44;41.64;99618.44;10302328;28;20058;-72
2021/07/26 16:26:55;;;;;;;2.40;1.60;;;;;;;27.39;42.22;99606.59;10292814;28;20584;-68
2021/07/26 16:31:56;;;;;;;2.60;2.40;;;;;;;27.34;42.40;99605.44;10303954;28;20057;-67
2021/07/26 16:36:58;;;;;;;2.92;2.30;;;;;;;27.26;42.94;99591.34;10305025;28;20076;-69
2021/07/26 16:42:01;;;;;;;2.53;1.90;;;;;;;27.36;41.87;99586.06;10304276;28;20128;-68
2021/07/26 16:47:03;;;;;;;3.35;2.25;;;;;;;27.37;41.12;99587.72;10314951;28;20764;-72
2021/07/26 16:52:05;;;;;;;2.10;1.90;;;;;;;27.25;41.42;99581.47;10295231;28;20062;-69
2021/07/26 16:57:06;;;;;;;4.10;2.50;;;;;;;26.93;42.75;99584.81;10295017;28;20087;-69
2021/07/26 17:02:08;;;;;;;4.15;2.05;;;;;;;26.64;44.11;99579.38;10292991;28;20054;-69
2021/07/26 17:07:10;;;;;;;5.50;1.80;;;;;;;26.45;44.80;99598.69;10288168;28;20052;-70
2021/07/26 17:12:13;;;;;;;3.00;1.95;;;;;;;26.19;45.87;99582.91;10290600;28;20050;-70
2021/07/26 17:17:15;;;;;;;4.40;2.67;;;;;;;26.03;45.93;99568.13;10298791;28;20104;-69
2021/07/26 17:22:19;;;;;;;2.75;1.95;;;;;;;25.92;46.46;99577.97;10301999;28;20093;-67
2021/07/26 17:27:21;;;;;;;3.28;2.25;;;;;;;25.90;46.28;99586.41;10301323;28;20050;-66
2021/07/26 17:32:23;;;;;;;2.92;2.03;;;;;;;25.92;45.24;99586.16;10295026;28;20062;-70
2021/07/26 17:37:25;;;;;;;2.43;1.90;;;;;;;25.73;45.25;99593.66;10298618;28;20051;-69
2021/07/26 17:42:26;;;;;;;2.47;2.03;;;;;;;25.72;45.54;99601.00;10286856;28;20563;-68
2021/07/26 17:47:29;;;;;;;3.85;2.53;;;;;;;25.80;45.56;99610.72;10295845;28;20411;-69
2021/07/26 17:52:30;;;;;;;2.17;1.77;;;;;;;25.70;45.41;99622.22;10308635;28;20523;-70
2021/07/26 17:57:31;;;;;;;3.05;1.90;;;;;;;25.58;45.76;99633.13;10309791;28;20047;-69
2021/07/26 18:02:33;;;;;;;4.28;2.10;;;;;;;25.52;45.68;99634.09;10296434;28;20116;-69
2021/07/26 18:07:43;;;;;;;2.58;2.03;;;;;;;25.38;45.79;99647.09;10294622;28;20065;-68
2021/07/26 18:12:45;;;;;;;3.28;2.08;;;;;;;25.32;46.35;99649.94;10293875;28;20077;-68
2021/07/26 18:18:06;;;;;;;3.65;2.53;;;;;;;25.24;46.57;99649.19;10301408;28;20050;-68
2021/07/26 18:23:08;;;;;;;4.28;2.65;;;;;;;25.17;47.11;99653.09;10306885;28;20109;-69
2021/07/26 18:28:09;;;;;;;2.97;2.43;;;;;;;25.00;47.44;99658.38;10298453;28;25320;-68
2021/07/26 18:33:11;;;;;;;3.65;2.47;;;;;;;24.90;47.90;99669.84;10296932;28;20153;-68
2021/07/26 18:38:13;;;;;;;3.63;2.40;;;;;;;24.99;48.14;99684.75;10293431;28;20050;-68
2021/07/26 18:43:15;;;;;;;3.95;2.60;;;;;;;24.87;48.27;99692.06;10293404;28;20138;-66
2021/07/26 18:48:18;;;;;;;3.63;2.43;;;;;;;24.84;48.36;99700.69;10297531;28;20487;-67
2021/07/26 18:53:20;;;;;;;3.42;2.50;;;;;;;24.79;48.47;99700.56;10292098;28;20126;-68
2021/07/26 18:58:21;;;;;;;3.38;2.40;;;;;;;24.70;48.89;99703.59;10295147;28;20556;-67
2021/07/26 19:03:23;;;;;;;3.42;2.70;;;;;;;24.61;49.27;99710.44;10292884;28;20124;-68
2021/07/26 19:08:24;;;;;;;3.90;2.65;;;;;;;24.54;49.40;99717.81;10288332;28;20145;-66
2021/07/26 19:13:27;;;;;;;3.63;2.72;;;;;;;24.47;49.66;99717.03;10289283;28;20482;-67
2021/07/26 19:18:28;;;;;;;3.53;2.72;;;;;;;24.33;50.41;99719.91;10284158;28;20089;-67
2021/07/26 19:23:30;;;;;;;3.58;2.67;;;;;;;24.25;50.75;99724.84;10282630;28;20682;-67
2021/07/26 19:28:34;;;;;;;5.40;2.80;;;;;;;24.13;51.71;99719.34;10287282;28;20133;-68
2021/07/26 19:33:36;;;;;;;4.25;2.80;;;;;;;24.09;51.76;99721.66;10265991;28;20053;-69
2021/07/26 19:38:39;;;;;;;2.85;2.50;;;;;;;24.00;52.12;99723.88;10288214;28;20074;-66
2021/07/26 19:43:41;;;;;;;;;;;;;;;23.93;53.07;99731.25;10290053;28;20137;-67
2021/07/26 19:48:42;;;;;;;3.67;2.85;;;;;;;23.78;53.99;99736.16;10288512;28;19921;-66
2021/07/26 19:53:44;;;;;;;5.18;2.88;;;;;;;23.67;54.17;99726.84;10283970;28;20153;-68
2021/07/26 19:58:46;;;;;;;3.30;3.00;;;;;;;23.53;55.19;99726.13;10285394;28;20125;-68
2021/07/26 20:03:48;;;;;;;3.07;2.77;;;;;;;23.55;55.89;99734.88;10290632;28;20113;-68
2021/07/26 20:08:53;;;;;;;4.30;3.63;;;;;;;23.53;55.95;99749.75;10290718;28;21233;-66
2021/07/26 20:13:55;;;;;;;5.95;2.88;;;;;;;23.43;57.05;99758.38;10286357;28;20105;-67
2021/07/26 20:18:58;;;;;;;3.97;3.10;;;;;;;23.37;57.15;99767.41;10287350;28;20065;-66
2021/07/26 20:23:59;;;;;;;5.13;3.05;;;;;;;23.37;58.03;99775.56;10297269;28;20054;-68
2021/07/26 20:29:01;;;;;;;3.80;2.72;;;;;;;23.24;58.05;99782.75;10273563;28;20101;-68
2021/07/26 20:34:02;;;;;;;4.38;2.90;;;;;;;23.18;58.46;99778.19;10264220;28;20049;-67
2021/07/26 20:39:04;;;;;;;3.63;2.90;;;;;;;23.18;58.95;99786.34;10268500;28;20062;-68
2021/07/26 20:44:08;;;;;;;3.88;2.85;;;;;;;23.16;58.34;99790.31;10274170;28;20181;-67
2021/07/26 20:49:10;;;;;;;3.20;2.75;;;;;;;23.12;58.61;99789.91;10289457;28;20061;-67
2021/07/26 20:54:11;;;;;;;3.53;3.17;;;;;;;23.19;59.31;99801.56;10287874;28;20207;-68
2021/07/26 20:59:13;;;;;;;3.38;2.90;;;;;;;23.06;59.51;99798.88;10288855;28;20133;-68
2021/07/26 21:04:14;;;;;;;3.78;2.80;;;;;;;22.98;59.78;99796.41;10280942;28;20046;-68
2021/07/26 21:09:16;;;;;;;3.63;2.92;;;;;;;22.85;60.13;99800.88;10288215;28;20731;-68
2021/07/26 21:14:24;;;;;;;5.32;3.85;;;;;;;22.77;60.76;99809.22;10306440;28;20707;-69
2021/07/26 21:19:27;;;;;;;4.47;3.42;;;;;;;22.70;61.06;99814.69;10292121;28;20066;-68
2021/07/26 21:24:29;;;;;;;5.95;3.65;;;;;;;22.62;61.20;99808.66;10304112;28;20235;-69
2021/07/26 21:29:31;;;;;;;5.82;3.80;;;;;;;22.57;62.00;99818.28;10300499;28;20523;-70
2021/07/26 21:34:36;;;;;;;4.18;3.53;;;;;;;22.54;62.15;99815.16;10292820;28;20051;-71
2021/07/26 21:39:38;;;;;;;3.70;3.20;;;;;;;22.52;61.89;99818.09;10298804;28;20054;-69
2021/07/26 21:44:40;;;;;;;4.57;3.67;;;;;;;22.56;62.14;99822.03;10297578;28;20049;-70
2021/07/26 21:49:41;;;;;;;4.78;3.97;;;;;;;22.55;61.33;99824.97;10302139;28;20112;-69
2021/07/26 21:55:00;;;;;;;3.60;3.22;;;;;;;22.49;61.16;99825.78;10298578;28;20054;-69
2021/07/26 22:00:06;;;;;;;4.47;3.13;;;;;;;22.47;61.95;99836.84;10295445;28;20061;-70
2021/07/26 22:05:08;;;;;;;4.30;3.60;;;;;;;22.41;62.23;99832.28;10298582;28;20105;-68
2021/07/26 22:10:10;;;;;;;7.75;3.42;;;;;;;22.36;62.15;99840.22;10298360;28;20116;-70
2021/07/26 22:15:12;;;;;;;3.65;3.08;;;;;;;22.33;61.81;99854.22;10295181;28;20125;-71
2021/07/26 22:20:14;;;;;;;3.53;3.20;;;;;;;22.24;62.87;99851.66;10285866;28;20066;-70
2021/07/26 22:25:15;;;;;;;4.50;2.97;;;;;;;22.20;62.83;99847.72;10296356;28;20069;-70
2021/07/26 22:30:17;;;;;;;7.47;3.42;;;;;;;22.10;63.16;99852.72;10306607;28;20408;-69
2021/07/26 22:35:18;;;;;;;4.20;3.78;;;;;;;22.08;62.97;99865.63;10294226;28;20084;-70
2021/07/26 22:40:20;;;;;;;4.50;3.50;;;;;;;21.99;63.04;99866.91;10313392;28;20073;-69
2021/07/26 22:45:21;;;;;;;3.83;2.80;;;;;;;21.88;64.04;99861.03;10289018;28;20101;-69
2021/07/26 22:50:22;;;;;;;4.45;3.20;;;;;;;21.87;63.67;99853.97;10299601;28;20050;-69
2021/07/26 22:55:25;;;;;;;3.45;2.85;;;;;;;21.69;64.98;99861.84;10305410;28;20042;-69
2021/07/26 23:00:26;;;;;;;4.47;4.07;;;;;;;21.66;65.30;99862.28;10299316;28;20050;-69
2021/07/26 23:05:28;;;;;;;4.15;3.20;;;;;;;21.49;65.86;99873.44;10296509;28;20071;-70
2021/07/26 23:10:29;;;;;;;6.75;3.75;;;;;;;21.45;65.67;99857.81;10304186;28;20058;-69
2021/07/26 23:15:31;;;;;;;4.97;3.95;;;;;;;21.36;66.16;99862.59;10318943;28;20459;-68
2021/07/26 23:20:32;;;;;;;4.90;3.50;;;;;;;21.30;66.34;99876.94;10300018;28;20537;-68
2021/07/26 23:25:34;;;;;;;4.95;3.05;;;;;;;21.29;66.34;99873.41;10292830;28;20590;-68
2021/07/26 23:30:35;;;;;;;5.18;4.28;;;;;;;21.25;66.63;99869.44;10286500;28;20082;-71